createdAt,value
2022-11-19T00:02:22.859Z,8.30
2022-11-19T00:04:51.539Z,8.30
2022-11-19T00:07:19.172Z,8.30
2022-11-19T00:12:55.604Z,8.20
2022-11-19T00:15:25.408Z,8.20
2022-11-19T00:18:10.660Z,8.10
2022-11-19T00:24:10.260Z,8.10
2022-11-19T00:27:04.025Z,8.20
2022-11-19T00:29:35.240Z,8.20
2022-11-19T00:32:36.265Z,8.20
2022-11-19T00:35:08.861Z,8.20
2022-11-19T00:37:35.607Z,8.20
2022-11-19T00:40:38.758Z,8.20
2022-11-19T00:43:27.191Z,8.20
2022-11-19T00:45:58.525Z,8.20
2022-11-19T00:49:02.322Z,8.30
2022-11-19T00:51:33.500Z,8.20
2022-11-19T00:54:08.249Z,8.30
2022-11-19T00:56:34.968Z,8.30
2022-11-19T00:59:54.636Z,8.30
2022-11-19T01:02:25.290Z,8.30
2022-11-19T01:05:44.010Z,8.20
2022-11-19T01:08:14.110Z,8.20
2022-11-19T01:10:43.943Z,8.20
2022-11-19T01:17:02.492Z,8.20
2022-11-19T01:19:34.179Z,8.20
2022-11-19T01:22:24.818Z,8.20
2022-11-19T01:24:56.194Z,8.20
2022-11-19T01:30:27.214Z,8.20
2022-11-19T01:33:05.346Z,8.20
2022-11-19T01:35:36.873Z,8.20
2022-11-19T01:38:06.576Z,8.10
2022-11-19T01:41:33.139Z,8.20
2022-11-19T01:44:50.582Z,8.20
2022-11-19T01:47:55.683Z,8.10
2022-11-19T01:50:52.000Z,8.10
2022-11-19T01:56:39.744Z,8.10
2022-11-19T02:02:13.723Z,8.00
2022-11-19T02:05:05.252Z,8.00
2022-11-19T02:07:43.061Z,8.00
2022-11-19T02:10:16.743Z,8.00
2022-11-19T02:13:30.108Z,8.00
2022-11-19T02:16:50.194Z,8.00
2022-11-19T02:20:21.148Z,8.00
2022-11-19T02:23:55.473Z,8.10
2022-11-19T02:27:12.585Z,8.10
2022-11-19T02:30:05.839Z,8.10
2022-11-19T02:33:04.303Z,8.10
2022-11-19T02:39:19.378Z,8.20
2022-11-19T02:42:03.946Z,8.20
2022-11-19T02:45:01.505Z,8.20
2022-11-19T02:47:46.277Z,8.20
2022-11-19T02:53:49.574Z,8.20
2022-11-19T02:56:44.872Z,8.30
2022-11-19T02:59:56.141Z,8.20
2022-11-19T03:02:53.642Z,8.20
2022-11-19T03:05:36.066Z,8.30
2022-11-19T03:08:05.135Z,8.30
2022-11-19T03:11:13.466Z,8.30
2022-11-19T03:14:41.538Z,8.20
2022-11-19T03:17:47.661Z,8.20
2022-11-19T03:20:29.279Z,8.30
2022-11-19T03:23:04.840Z,8.30
2022-11-19T03:25:46.138Z,8.30
2022-11-19T03:28:27.978Z,8.30
2022-11-19T03:31:04.340Z,8.30
2022-11-19T03:33:43.891Z,8.30
2022-11-19T03:37:13.752Z,8.30
2022-11-19T03:39:56.157Z,8.40
2022-11-19T03:42:29.747Z,8.40
2022-11-19T03:45:29.743Z,8.30
2022-11-19T03:47:59.230Z,8.30
2022-11-19T03:51:07.407Z,8.30
2022-11-19T03:53:39.071Z,8.30
2022-11-19T03:56:09.882Z,8.30
2022-11-19T03:58:46.973Z,8.30
2022-11-19T04:01:31.002Z,8.20
2022-11-19T04:04:43.353Z,8.30
2022-11-19T04:07:22.515Z,8.30
2022-11-19T04:13:24.720Z,8.30
2022-11-19T04:15:53.002Z,8.30
2022-11-19T04:18:19.745Z,8.30
2022-11-19T04:20:47.874Z,8.30
2022-11-19T04:23:15.023Z,8.30
2022-11-19T04:25:47.998Z,8.30
2022-11-19T04:28:17.630Z,8.30
2022-11-19T04:30:51.409Z,8.30
2022-11-19T04:33:18.043Z,8.30
2022-11-19T04:35:45.486Z,8.30
2022-11-19T04:38:24.317Z,8.30
2022-11-19T04:41:10.996Z,8.30
2022-11-19T04:44:25.288Z,8.30
2022-11-19T04:47:06.641Z,8.30
2022-11-19T04:49:47.187Z,8.30
2022-11-19T04:52:14.853Z,8.30
2022-11-19T04:54:45.087Z,8.30
2022-11-19T04:57:19.901Z,8.30
2022-11-19T04:59:55.963Z,8.30
2022-11-19T05:02:38.441Z,8.20
2022-11-19T05:05:08.649Z,8.30
2022-11-19T05:07:35.683Z,8.20
2022-11-19T05:10:08.938Z,8.20
2022-11-19T05:12:44.222Z,8.20
2022-11-19T05:18:11.602Z,8.10
2022-11-19T05:20:51.706Z,8.10
2022-11-19T05:23:39.646Z,8.10
2022-11-19T05:26:06.563Z,8.10
2022-11-19T05:31:43.509Z,8.00
2022-11-19T05:34:15.171Z,8.00
2022-11-19T05:36:43.623Z,8.00
2022-11-19T05:39:38.374Z,8.00
2022-11-19T05:45:24.199Z,8.00
2022-11-19T05:57:07.296Z,8.00
2022-11-19T06:02:33.693Z,8.00
2022-11-19T06:05:02.859Z,8.00
2022-11-19T06:07:32.385Z,8.00
2022-11-19T06:12:45.774Z,8.00
2022-11-19T06:15:16.785Z,8.00
2022-11-19T06:17:52.233Z,8.10
2022-11-19T06:24:06.371Z,8.10
2022-11-19T06:26:41.224Z,8.10
2022-11-19T06:32:00.607Z,8.10
2022-11-19T06:34:28.016Z,8.10
2022-11-19T06:36:58.613Z,8.10
2022-11-19T06:39:29.871Z,8.10
2022-11-19T06:42:19.357Z,8.20
2022-11-19T06:44:52.508Z,8.10
2022-11-19T06:47:20.948Z,8.10
2022-11-19T06:59:15.126Z,8.20
2022-11-19T07:04:38.277Z,8.20
2022-11-19T07:08:03.188Z,8.10
2022-11-19T07:11:21.452Z,8.20
2022-11-19T07:14:15.647Z,8.10
2022-11-19T07:19:43.359Z,8.10
2022-11-19T07:22:11.664Z,8.10
2022-11-19T07:24:38.699Z,8.20
2022-11-19T07:27:11.601Z,8.20
2022-11-19T07:29:44.569Z,8.20
2022-11-19T07:32:16.579Z,8.30
2022-11-19T07:34:46.742Z,8.30
2022-11-19T07:37:22.250Z,8.20
2022-11-19T07:39:58.868Z,8.20
2022-11-19T07:42:57.096Z,8.20
2022-11-19T07:45:30.351Z,8.30
2022-11-19T07:47:59.807Z,8.30
2022-11-19T07:51:26.869Z,8.30
2022-11-19T07:55:14.002Z,8.30
2022-11-19T07:57:40.917Z,8.30
2022-11-19T08:00:15.032Z,8.30
2022-11-19T08:02:41.824Z,8.30
2022-11-19T08:05:41.965Z,8.40
2022-11-19T08:08:10.369Z,8.40
2022-11-19T08:10:42.058Z,8.40
2022-11-19T08:13:15.200Z,8.40
2022-11-19T08:16:21.354Z,8.50
2022-11-19T08:19:43.157Z,8.40
2022-11-19T08:22:11.599Z,8.50
2022-11-19T08:25:01.880Z,8.50
2022-11-19T08:27:34.063Z,8.50
2022-11-19T08:30:04.801Z,8.60
2022-11-19T08:32:42.921Z,8.50
2022-11-19T08:35:12.597Z,8.50
2022-11-19T08:37:45.768Z,8.50
2022-11-19T08:40:15.774Z,8.50
2022-11-19T08:45:59.870Z,8.60
2022-11-19T08:48:27.732Z,8.70
2022-11-19T08:53:51.094Z,8.80
2022-11-19T08:56:35.582Z,8.80
2022-11-19T08:59:10.515Z,8.90
2022-11-19T09:01:46.870Z,8.90
2022-11-19T09:04:30.239Z,9.00
2022-11-19T09:07:03.236Z,8.90
2022-11-19T09:15:32.232Z,8.90
2022-11-19T09:23:49.435Z,9.00
2022-11-19T09:26:18.945Z,9.00
2022-11-19T09:29:13.240Z,9.00
2022-11-19T09:31:39.987Z,9.00
2022-11-19T09:34:09.989Z,9.10
2022-11-19T09:36:54.219Z,9.10
2022-11-19T09:39:47.876Z,9.10
2022-11-19T09:43:02.957Z,9.10
2022-11-19T09:46:01.366Z,9.10
2022-11-19T09:49:13.448Z,9.10
2022-11-19T09:51:54.239Z,9.10
2022-11-19T09:54:27.952Z,9.10
2022-11-19T09:57:04.226Z,9.00
2022-11-19T09:59:47.323Z,8.90
2022-11-19T10:02:20.201Z,8.90
2022-11-19T10:04:50.924Z,8.90
2022-11-19T10:07:59.167Z,8.80
2022-11-19T10:11:04.921Z,8.80
2022-11-19T10:14:21.685Z,8.70
2022-11-19T10:20:12.400Z,8.70
2022-11-19T10:23:25.808Z,8.70
2022-11-19T10:26:42.338Z,8.70
2022-11-19T10:29:22.934Z,8.70
2022-11-19T10:36:28.733Z,8.70
2022-11-19T10:39:43.516Z,8.70
2022-11-19T10:42:59.698Z,8.70
2022-11-19T10:45:30.765Z,8.70
2022-11-19T10:48:49.715Z,8.70
2022-11-19T10:51:51.363Z,8.80
2022-11-19T10:54:31.049Z,8.70
2022-11-19T10:57:11.476Z,8.70
2022-11-19T10:59:50.121Z,8.70
2022-11-19T11:02:37.131Z,8.70
2022-11-19T11:11:37.465Z,8.70
2022-11-19T11:20:46.719Z,8.70
2022-11-19T11:23:17.203Z,8.70
2022-11-19T11:31:52.980Z,8.70
2022-11-19T11:34:32.457Z,8.70
2022-11-19T11:37:14.125Z,8.60
2022-11-19T11:39:44.108Z,8.60
2022-11-19T11:42:46.353Z,8.60
2022-11-19T11:45:44.367Z,8.60
2022-11-19T11:48:21.128Z,8.60
2022-11-19T11:50:49.587Z,8.60
2022-11-19T11:53:34.873Z,8.70
2022-11-19T11:56:04.249Z,8.60
2022-11-19T11:58:33.435Z,8.70
2022-11-19T12:01:15.988Z,8.70
2022-11-19T12:03:58.089Z,8.70
2022-11-19T12:06:47.003Z,8.70
2022-11-19T12:09:38.111Z,8.70
2022-11-19T12:12:21.140Z,8.70
2022-11-19T12:15:21.456Z,8.70
2022-11-19T12:18:13.135Z,8.70
2022-11-19T12:20:52.597Z,8.70
2022-11-19T12:23:54.511Z,8.60
2022-11-19T12:26:56.420Z,8.70
2022-11-19T12:36:32.906Z,8.60
2022-11-19T12:39:39.250Z,8.60
2022-11-19T12:42:21.592Z,8.60
2022-11-19T12:44:55.404Z,8.60
2022-11-19T12:48:01.690Z,8.70
2022-11-19T12:51:28.714Z,8.70
2022-11-19T12:54:25.350Z,8.70
2022-11-19T13:00:20.443Z,8.80
2022-11-19T13:02:50.890Z,8.80
2022-11-19T13:06:18.306Z,8.80
2022-11-19T13:15:25.664Z,8.90
2022-11-19T13:18:00.036Z,8.90
2022-11-19T13:21:21.298Z,8.90
2022-11-19T13:26:38.117Z,8.90
2022-11-19T13:32:20.168Z,8.90
2022-11-19T13:35:12.577Z,8.90
2022-11-19T13:41:34.033Z,8.70
2022-11-19T14:14:05.365Z,8.20
2022-11-19T14:20:58.948Z,8.20
2022-11-19T14:28:00.762Z,8.10
2022-11-19T14:31:07.962Z,8.10
2022-11-19T14:34:04.838Z,8.00
2022-11-19T14:36:54.117Z,7.90
2022-11-19T14:42:31.758Z,7.80
2022-11-19T14:45:56.739Z,7.80
2022-11-19T14:48:25.039Z,7.80
2022-11-19T14:54:40.041Z,7.70
2022-11-19T14:57:30.734Z,7.60
2022-11-19T15:00:56.004Z,7.60
2022-11-19T15:03:39.522Z,7.50
2022-11-19T15:06:24.767Z,7.40
2022-11-19T15:08:56.170Z,7.40
2022-11-19T15:11:24.358Z,7.40
2022-11-19T15:14:59.319Z,7.30
2022-11-19T15:17:27.409Z,7.30
2022-11-19T15:20:24.521Z,7.30
2022-11-19T15:26:48.031Z,7.30
2022-11-19T15:30:05.840Z,7.30
2022-11-19T15:32:56.631Z,7.20
2022-11-19T15:39:11.120Z,7.20
2022-11-19T15:42:12.851Z,7.20
2022-11-19T15:45:13.932Z,7.10
2022-11-19T15:48:11.026Z,7.10
2022-11-19T15:50:40.872Z,7.20
2022-11-19T15:53:28.534Z,7.20
2022-11-19T15:56:12.162Z,7.20
2022-11-19T15:58:48.011Z,7.20
2022-11-19T16:01:21.017Z,7.20
2022-11-19T16:06:52.908Z,7.20
2022-11-19T16:09:31.036Z,7.20
2022-11-19T16:13:15.906Z,7.20
2022-11-19T16:16:15.042Z,7.20
2022-11-19T16:19:46.718Z,7.10
2022-11-19T16:22:16.215Z,7.10
2022-11-19T16:25:02.283Z,7.10
2022-11-19T16:27:32.846Z,7.10
2022-11-19T16:30:02.020Z,7.10
2022-11-19T16:32:30.160Z,7.10
2022-11-19T16:35:26.923Z,7.10
2022-11-19T16:41:20.239Z,7.10
2022-11-19T16:47:10.362Z,7.00
2022-11-19T16:50:32.477Z,7.00
2022-11-19T16:53:36.872Z,7.00
2022-11-19T16:57:03.846Z,7.00
2022-11-19T17:00:15.334Z,6.90
2022-11-19T17:05:31.423Z,6.90
2022-11-19T17:08:35.791Z,6.90
2022-11-19T17:12:06.092Z,6.90
2022-11-19T17:14:52.486Z,6.90
2022-11-19T17:17:55.557Z,6.90
2022-11-19T17:20:58.284Z,6.90
2022-11-19T17:26:57.211Z,6.90
2022-11-19T17:33:06.177Z,6.90
2022-11-19T17:35:41.655Z,6.90
2022-11-19T17:38:31.465Z,6.90
2022-11-19T17:41:04.228Z,6.90
2022-11-19T17:44:08.289Z,6.90
2022-11-19T17:46:43.961Z,6.90
2022-11-19T17:52:31.857Z,6.80
2022-11-19T17:55:26.541Z,6.80
2022-11-19T18:00:47.819Z,6.80
2022-11-19T18:07:57.438Z,6.60
2022-11-19T18:10:27.280Z,6.60
2022-11-19T18:12:56.065Z,6.60
2022-11-19T18:15:54.223Z,6.60
2022-11-19T18:18:26.712Z,6.60
2022-11-19T18:21:01.641Z,6.50
2022-11-19T18:23:46.201Z,6.50
2022-11-19T18:26:27.954Z,6.40
2022-11-19T18:28:55.973Z,6.40
2022-11-19T18:31:27.184Z,6.30
2022-11-19T18:33:56.645Z,6.30
2022-11-19T18:37:01.913Z,6.20
2022-11-19T18:39:35.955Z,6.20
2022-11-19T18:42:12.289Z,6.20
2022-11-19T18:44:45.257Z,6.20
2022-11-19T18:47:15.237Z,6.20
2022-11-19T18:49:50.381Z,6.20
2022-11-19T18:52:37.076Z,6.10
2022-11-19T18:55:19.060Z,6.10
2022-11-19T18:57:55.902Z,6.00
2022-11-19T19:00:39.763Z,6.10
2022-11-19T19:03:15.858Z,6.10
2022-11-19T19:05:42.951Z,6.10
2022-11-19T19:08:10.716Z,6.10
2022-11-19T19:10:39.497Z,6.00
2022-11-19T19:16:15.175Z,6.00
2022-11-19T19:19:20.515Z,6.10
2022-11-19T19:22:12.645Z,6.10
2022-11-19T19:24:49.411Z,6.10
2022-11-19T19:27:40.422Z,6.10
2022-11-19T19:30:16.977Z,6.10
2022-11-19T19:32:46.217Z,6.10
2022-11-19T19:35:28.391Z,6.10
2022-11-19T19:41:01.153Z,6.10
2022-11-19T19:43:33.272Z,6.00
2022-11-19T19:46:23.214Z,6.00
2022-11-19T19:48:57.468Z,6.00
2022-11-19T19:51:31.959Z,5.90
2022-11-19T19:57:04.704Z,6.00
2022-11-19T19:59:38.632Z,5.90
2022-11-19T20:02:20.194Z,5.90
2022-11-19T20:07:46.683Z,6.00
2022-11-19T20:10:14.983Z,6.00
2022-11-19T20:13:11.547Z,6.00
2022-11-19T20:15:50.127Z,6.00
2022-11-19T20:18:17.700Z,6.00
2022-11-19T20:20:48.239Z,6.00
2022-11-19T20:23:17.004Z,6.00
2022-11-19T20:31:48.173Z,6.00
2022-11-19T20:34:21.236Z,6.00
2022-11-19T20:36:54.491Z,6.00
2022-11-19T20:39:24.647Z,6.00
2022-11-19T20:45:47.555Z,5.90
2022-11-19T20:48:31.694Z,5.90
2022-11-19T20:51:11.133Z,5.90
2022-11-19T20:53:48.821Z,5.90
2022-11-19T20:56:48.692Z,5.80
2022-11-19T21:06:01.487Z,5.80
2022-11-19T21:08:33.796Z,5.80
2022-11-19T21:11:13.336Z,5.80
2022-11-19T21:14:12.696Z,5.80
2022-11-19T21:16:41.477Z,5.90
2022-11-19T21:19:25.726Z,5.80
2022-11-19T21:21:58.250Z,5.80
2022-11-19T21:24:35.508Z,5.80
2022-11-19T21:30:02.908Z,5.90
2022-11-19T21:32:32.759Z,5.80
2022-11-19T21:35:05.681Z,5.80
2022-11-19T21:37:51.282Z,5.80
2022-11-19T21:46:23.390Z,5.90
2022-11-19T21:56:16.092Z,5.80
2022-11-19T21:58:45.138Z,5.70
2022-11-19T22:01:22.462Z,5.70
2022-11-19T22:03:49.312Z,5.70
2022-11-19T22:06:40.347Z,5.70
2022-11-19T22:09:23.176Z,5.70
2022-11-19T22:17:57.040Z,5.70
2022-11-19T22:23:41.889Z,5.60
2022-11-19T22:26:13.138Z,5.60
2022-11-19T22:28:55.205Z,5.50
2022-11-19T22:34:29.268Z,5.60
2022-11-19T22:40:14.483Z,5.80
2022-11-19T22:42:44.553Z,5.80
2022-11-19T22:48:12.596Z,5.80
2022-11-19T22:50:51.309Z,5.90
2022-11-19T22:53:18.403Z,5.90
2022-11-19T22:56:47.869Z,5.90
2022-11-19T22:59:18.476Z,5.90
2022-11-19T23:05:22.100Z,6.00
2022-11-19T23:07:50.968Z,6.00
2022-11-19T23:10:35.604Z,6.00
2022-11-19T23:13:34.124Z,6.00
2022-11-19T23:16:49.822Z,5.90
2022-11-19T23:22:15.291Z,5.80
2022-11-19T23:30:44.035Z,5.70
2022-11-19T23:33:11.419Z,5.70
2022-11-19T23:38:50.752Z,5.70
2022-11-19T23:41:23.012Z,5.70
2022-11-19T23:43:52.860Z,5.70
2022-11-19T23:52:45.051Z,5.80
2022-11-19T23:55:42.953Z,5.80
2022-11-19T23:58:22.877Z,5.70
